Contact, Nevada
Current Conditions -  °F | °C
As of 12:53 PM on Monday 24 Nov 2014 (Local Time) from KTWF Reporting Station
Clear Clear  
Wind Chill: 36°   Ceiling: Unl
Heat Index: 44°   Visibility: 10mi
Dew Point: 26°   Wind: 21mph
Humidity: 49%   Direction: 250°WSW
Pressure: 30.4"   Gusts: 25mph
Location:  41.8136°N, 115.084°W
Report Text: KTWF 242053Z 25018G22KT 10SM CLR 07/M03 A3040 RMK AO2 SLP287 T00671033 50003
Loading
Personal Weather Stations






























Interactive Weather Map New forecast layout! Learn more

10-Day Weather Forecast

Advertisements
Track Severe Weather on mobile